createdAt,value
2022-11-13T00:02:08.549Z,32.55
2022-11-13T00:04:55.248Z,32.92
2022-11-13T00:07:42.559Z,32.20
2022-11-13T00:10:31.075Z,33.78
2022-11-13T00:13:17.439Z,39.30
2022-11-13T00:16:06.938Z,42.08
2022-11-13T00:18:53.647Z,38.97
2022-11-13T00:21:39.649Z,46.47
2022-11-13T00:24:25.721Z,40.83
2022-11-13T00:27:12.191Z,37.97
2022-11-13T00:29:58.729Z,41.28
2022-11-13T00:32:45.310Z,43.67
2022-11-13T00:35:34.619Z,45.63
2022-11-13T00:38:21.226Z,40.92
2022-11-13T00:41:07.564Z,38.70
2022-11-13T00:43:53.706Z,45.70
2022-11-13T00:46:41.348Z,38.60
2022-11-13T00:49:28.082Z,34.45
2022-11-13T00:52:14.429Z,36.92
2022-11-13T00:55:00.560Z,35.70
2022-11-13T00:57:46.697Z,37.58
2022-11-13T01:00:34.778Z,46.47
2022-11-13T01:03:21.681Z,41.92
2022-11-13T01:06:19.317Z,52.17
2022-11-13T01:09:06.661Z,51.47
2022-11-13T01:11:53.491Z,54.00
2022-11-13T01:14:39.867Z,52.05
2022-11-13T01:17:27.502Z,50.03
2022-11-13T01:20:13.805Z,44.90
2022-11-13T01:23:00.159Z,43.38
2022-11-13T01:25:46.561Z,43.55
2022-11-13T01:28:33.136Z,43.30
2022-11-13T01:31:23.668Z,40.38
2022-11-13T01:34:09.666Z,39.33
2022-11-13T01:36:55.799Z,43.30
2022-11-13T01:39:41.980Z,47.28
2022-11-13T01:42:34.292Z,42.42
2022-11-13T01:46:02.232Z,37.85
2022-11-13T01:48:55.122Z,38.92
2022-11-13T01:51:54.910Z,38.63
2022-11-13T01:54:48.819Z,35.77
2022-11-13T01:57:37.487Z,37.88
2022-11-13T02:00:23.393Z,37.33
2022-11-13T02:03:09.565Z,36.47
2022-11-13T02:05:56.886Z,32.97
2022-11-13T02:08:44.442Z,33.65
2022-11-13T02:11:30.926Z,32.70
2022-11-13T02:14:19.412Z,36.50
2022-11-13T02:17:09.321Z,33.95
2022-11-13T02:20:00.874Z,32.53
2022-11-13T02:22:52.804Z,32.40
2022-11-13T02:25:40.186Z,29.45
2022-11-13T02:28:26.759Z,30.05
2022-11-13T02:31:14.522Z,24.05
2022-11-13T02:34:02.468Z,27.70
2022-11-13T02:36:51.119Z,27.40
2022-11-13T02:39:38.894Z,34.88
2022-11-13T02:42:25.320Z,23.02
2022-11-13T02:45:11.798Z,25.48
2022-11-13T02:48:01.162Z,22.42
2022-11-13T02:50:48.907Z,24.17
2022-11-13T02:53:35.108Z,26.10
2022-11-13T02:56:21.382Z,18.42
2022-11-13T02:59:08.261Z,22.40
2022-11-13T03:01:54.191Z,20.85
2022-11-13T03:05:10.440Z,22.88
2022-11-13T03:07:47.762Z,17.60
2022-11-13T03:10:33.473Z,19.42
2022-11-13T03:13:19.708Z,15.98
2022-11-13T03:16:12.430Z,20.80
2022-11-13T03:18:58.751Z,20.95
2022-11-13T03:21:45.746Z,22.38
2022-11-13T03:24:32.421Z,20.42
2022-11-13T03:27:19.605Z,20.90
2022-11-13T03:30:06.309Z,24.15
2022-11-13T03:32:56.266Z,21.23
2022-11-13T03:35:46.731Z,25.08
2022-11-13T03:38:33.566Z,19.83
2022-11-13T03:41:22.325Z,23.42
2022-11-13T03:44:08.738Z,16.00
2022-11-13T03:46:55.018Z,17.35
2022-11-13T03:49:41.079Z,17.15
2022-11-13T03:52:27.354Z,14.60
2022-11-13T03:55:13.543Z,14.68
2022-11-13T03:58:00.388Z,15.60
2022-11-13T04:00:49.307Z,15.65
2022-11-13T04:03:35.786Z,17.13
2022-11-13T04:06:22.085Z,12.88
2022-11-13T04:09:08.243Z,14.38
2022-11-13T04:11:54.677Z,12.18
2022-11-13T04:14:40.993Z,12.95
2022-11-13T04:17:29.026Z,15.18
2022-11-13T04:20:16.090Z,15.63
2022-11-13T04:23:04.714Z,15.90
2022-11-13T04:25:50.761Z,16.15
2022-11-13T04:28:36.810Z,12.13
2022-11-13T04:31:23.198Z,13.93
2022-11-13T04:34:09.208Z,14.82
2022-11-13T04:36:55.729Z,12.25
2022-11-13T04:39:41.516Z,14.27
2022-11-13T04:42:46.242Z,13.20
2022-11-13T04:45:34.735Z,12.82
2022-11-13T04:48:20.828Z,14.68
2022-11-13T04:51:07.032Z,15.45
2022-11-13T04:53:53.453Z,12.57
2022-11-13T04:56:40.439Z,12.43
2022-11-13T04:59:26.754Z,12.88
2022-11-13T05:02:12.882Z,13.13
2022-11-13T05:05:04.400Z,13.10
2022-11-13T05:07:52.298Z,14.60
2022-11-13T05:10:38.519Z,14.52
2022-11-13T05:13:24.938Z,12.35
2022-11-13T05:16:13.813Z,14.02
2022-11-13T05:19:01.228Z,13.80
2022-11-13T05:21:47.696Z,13.95
2022-11-13T05:24:36.359Z,13.00
2022-11-13T05:27:22.255Z,13.90
2022-11-13T05:30:12.089Z,14.93
2022-11-13T05:32:58.588Z,11.50
2022-11-13T05:35:44.922Z,11.40
2022-11-13T05:38:31.862Z,14.63
2022-11-13T05:41:21.064Z,12.65
2022-11-13T05:44:08.217Z,12.38
2022-11-13T05:46:54.728Z,9.48
2022-11-13T05:49:40.898Z,12.15
2022-11-13T05:52:27.230Z,9.40
2022-11-13T05:55:13.247Z,9.25
2022-11-13T05:57:59.430Z,9.20
2022-11-13T06:00:46.386Z,8.98
2022-11-13T06:03:33.691Z,9.98
2022-11-13T06:06:22.464Z,9.43
2022-11-13T06:09:08.800Z,9.43
2022-11-13T06:11:55.714Z,10.65
2022-11-13T06:14:41.843Z,7.53
2022-11-13T06:17:28.230Z,8.52
2022-11-13T06:20:15.343Z,9.05
2022-11-13T06:23:01.847Z,6.55
2022-11-13T06:25:48.539Z,6.63
2022-11-13T06:28:35.269Z,6.32
2022-11-13T06:31:31.281Z,5.85
2022-11-13T06:34:17.479Z,6.45
2022-11-13T06:37:03.525Z,5.00
2022-11-13T06:39:50.569Z,3.95
2022-11-13T06:42:36.831Z,5.15
2022-11-13T06:45:22.738Z,6.03
2022-11-13T06:48:08.755Z,4.80
2022-11-13T06:50:54.784Z,4.28
2022-11-13T06:53:41.933Z,6.07
2022-11-13T06:56:28.080Z,5.57
2022-11-13T06:59:13.974Z,5.45
2022-11-13T07:01:59.998Z,6.72
2022-11-13T07:04:45.798Z,5.40
2022-11-13T07:07:33.440Z,5.15
2022-11-13T07:10:20.007Z,6.30
2022-11-13T07:13:06.799Z,6.63
2022-11-13T07:15:53.082Z,5.28
2022-11-13T07:18:41.691Z,6.47
2022-11-13T07:21:28.064Z,4.50
2022-11-13T07:24:17.099Z,7.70
2022-11-13T07:27:03.563Z,5.47
2022-11-13T07:29:49.994Z,5.28
2022-11-13T07:32:35.842Z,5.50
2022-11-13T07:35:23.051Z,8.55
2022-11-13T07:38:09.648Z,4.95
2022-11-13T07:40:59.063Z,6.80
2022-11-13T07:43:45.400Z,5.68
2022-11-13T07:46:31.757Z,4.18
2022-11-13T07:49:17.906Z,6.72
2022-11-13T07:52:04.096Z,5.47
2022-11-13T07:54:50.304Z,8.35
2022-11-13T07:57:36.950Z,7.25
2022-11-13T08:00:23.675Z,5.53
2022-11-13T08:03:13.682Z,8.52
2022-11-13T08:08:49.648Z,5.85
2022-11-13T08:11:36.712Z,16.73
2022-11-13T08:14:23.505Z,5.72
2022-11-13T08:17:09.997Z,5.97
2022-11-13T08:19:56.246Z,6.43
2022-11-13T08:22:46.298Z,13.25
2022-11-13T08:25:34.244Z,22.73
2022-11-13T08:28:21.226Z,6.97
2022-11-13T08:31:11.489Z,5.00
2022-11-13T08:33:57.947Z,7.15
2022-11-13T08:36:44.864Z,4.80
2022-11-13T08:39:31.214Z,5.28
2022-11-13T08:42:17.255Z,4.85
2022-11-13T08:45:03.840Z,6.22
2022-11-13T08:47:50.082Z,13.68
2022-11-13T08:50:36.492Z,7.82
2022-11-13T08:53:24.871Z,6.32
2022-11-13T08:56:11.165Z,4.72
2022-11-13T08:58:57.363Z,6.78
2022-11-13T09:01:44.419Z,5.60
2022-11-13T09:04:30.955Z,3.65
2022-11-13T09:07:17.429Z,5.85
2022-11-13T09:10:04.076Z,8.48
2022-11-13T09:12:55.232Z,4.60
2022-11-13T09:15:42.386Z,3.90
2022-11-13T09:18:30.912Z,5.32
2022-11-13T09:21:17.685Z,4.18
2022-11-13T09:24:03.884Z,4.50
2022-11-13T09:26:50.230Z,4.13
2022-11-13T09:29:36.651Z,5.13
2022-11-13T09:32:23.137Z,6.90
2022-11-13T09:35:09.264Z,5.25
2022-11-13T09:37:55.621Z,5.35
2022-11-13T09:41:06.378Z,3.92
2022-11-13T09:44:00.154Z,5.18
2022-11-13T09:46:54.254Z,5.00
2022-11-13T09:49:46.929Z,5.78
2022-11-13T09:52:37.615Z,4.97
2022-11-13T09:55:31.575Z,4.93
2022-11-13T09:58:39.715Z,5.07
2022-11-13T10:01:33.712Z,5.53
2022-11-13T10:04:34.057Z,4.78
2022-11-13T10:07:40.051Z,4.43
2022-11-13T10:10:32.163Z,5.35
2022-11-13T10:13:24.383Z,4.30
2022-11-13T10:16:24.782Z,4.85
2022-11-13T10:19:30.207Z,4.18
2022-11-13T10:22:32.857Z,5.40
2022-11-13T10:25:28.688Z,5.85
2022-11-13T10:28:49.053Z,5.70
2022-11-13T10:31:24.998Z,4.68
2022-11-13T10:34:13.104Z,4.55
2022-11-13T10:37:30.451Z,4.10
2022-11-13T10:40:32.728Z,3.90
2022-11-13T10:43:22.901Z,5.15
2022-11-13T10:46:21.223Z,5.78
2022-11-13T10:49:13.283Z,4.10
2022-11-13T10:52:07.114Z,5.28
2022-11-13T10:55:33.967Z,6.45
2022-11-13T10:58:21.911Z,6.93
2022-11-13T11:01:26.034Z,3.65
2022-11-13T11:04:30.159Z,5.35
2022-11-13T11:07:22.545Z,5.82
2022-11-13T11:10:34.679Z,4.03
2022-11-13T11:13:23.966Z,4.70
2022-11-13T11:16:17.738Z,4.75
2022-11-13T11:19:10.428Z,6.05
2022-11-13T11:22:24.660Z,6.80
2022-11-13T11:25:18.850Z,5.18
2022-11-13T11:28:15.468Z,4.18
2022-11-13T11:31:45.375Z,4.78
2022-11-13T11:34:42.334Z,5.40
2022-11-13T11:37:38.322Z,3.90
2022-11-13T11:40:31.115Z,5.72
2022-11-13T11:43:23.535Z,5.00
2022-11-13T11:46:14.854Z,6.25
2022-11-13T11:49:01.780Z,6.68
2022-11-13T11:51:56.705Z,4.28
2022-11-13T11:54:59.187Z,4.80
2022-11-13T11:58:00.952Z,4.78
2022-11-13T12:00:52.464Z,5.90
2022-11-13T12:04:01.785Z,4.50
2022-11-13T12:07:10.613Z,6.50
2022-11-13T12:10:18.733Z,8.15
2022-11-13T12:13:10.762Z,5.30
2022-11-13T12:16:10.174Z,5.22
2022-11-13T12:22:13.862Z,6.95
2022-11-13T12:25:34.829Z,6.18
2022-11-13T12:28:23.337Z,7.25
2022-11-13T12:31:28.696Z,5.85
2022-11-13T12:34:28.922Z,7.78
2022-11-13T12:37:22.998Z,4.22
2022-11-13T12:40:44.550Z,5.63
2022-11-13T12:43:49.780Z,5.75
2022-11-13T12:46:38.539Z,5.55
2022-11-13T12:49:27.610Z,7.63
2022-11-13T12:52:18.879Z,4.10
2022-11-13T12:55:09.168Z,5.60
2022-11-13T12:58:05.374Z,5.85
2022-11-13T13:01:19.585Z,4.65
2022-11-13T13:04:11.727Z,5.65
2022-11-13T13:07:30.655Z,5.20
2022-11-13T13:10:32.401Z,6.82
2022-11-13T13:13:24.837Z,7.05
2022-11-13T13:16:12.151Z,6.03
2022-11-13T13:19:28.615Z,7.38
2022-11-13T13:22:32.390Z,6.90
2022-11-13T13:25:35.916Z,7.32
2022-11-13T13:28:24.915Z,6.25
2022-11-13T13:31:42.101Z,8.88
2022-11-13T13:34:35.200Z,5.55
2022-11-13T13:37:40.431Z,5.80
2022-11-13T13:40:32.043Z,5.80
2022-11-13T13:43:55.703Z,5.32
2022-11-13T13:46:42.835Z,6.40
2022-11-13T13:49:29.541Z,6.45
2022-11-13T13:52:16.742Z,7.25
2022-11-13T13:55:07.796Z,9.15
2022-11-13T13:57:54.731Z,7.30
2022-11-13T14:01:05.148Z,7.82
2022-11-13T14:03:48.382Z,8.68
2022-11-13T14:06:34.979Z,8.10
2022-11-13T14:09:23.948Z,8.60
2022-11-13T14:12:19.390Z,9.60
2022-11-13T14:15:17.078Z,8.45
2022-11-13T14:18:14.976Z,7.60
2022-11-13T14:21:16.700Z,7.72
2022-11-13T14:24:03.738Z,9.98
2022-11-13T14:26:52.608Z,7.38
2022-11-13T14:29:50.497Z,7.75
2022-11-13T14:32:45.731Z,8.77
2022-11-13T14:35:38.361Z,8.35
2022-11-13T14:38:28.518Z,9.45
2022-11-13T14:44:11.821Z,9.52
2022-11-13T14:47:06.702Z,10.07
2022-11-13T14:49:54.015Z,10.30
2022-11-13T14:52:41.048Z,9.77
2022-11-13T14:55:32.040Z,11.05
2022-11-13T14:58:35.913Z,9.73
2022-11-13T15:01:24.851Z,10.65
2022-11-13T15:04:11.234Z,13.45
2022-11-13T15:07:00.914Z,10.18
2022-11-13T15:09:50.997Z,14.63
2022-11-13T15:12:38.116Z,12.75
2022-11-13T15:15:28.621Z,15.30
2022-11-13T15:18:19.929Z,11.50
2022-11-13T15:21:06.460Z,10.50
2022-11-13T15:23:53.115Z,13.55
2022-11-13T15:26:39.979Z,10.68
2022-11-13T15:29:26.050Z,11.60
2022-11-13T15:32:14.657Z,11.32
2022-11-13T15:35:01.545Z,11.13
2022-11-13T15:37:47.642Z,16.98
2022-11-13T15:40:34.276Z,13.93
2022-11-13T15:43:20.638Z,12.57
2022-11-13T15:46:14.751Z,14.02
2022-11-13T15:49:00.994Z,11.45
2022-11-13T15:51:47.405Z,10.30
2022-11-13T15:54:37.659Z,11.15
2022-11-13T15:57:32.846Z,10.75
2022-11-13T16:00:24.843Z,9.90
2022-11-13T16:03:12.574Z,9.93
2022-11-13T16:06:00.323Z,12.43
2022-11-13T16:08:48.650Z,8.65
2022-11-13T16:11:36.698Z,8.63
2022-11-13T16:14:24.798Z,9.38
2022-11-13T16:17:14.723Z,10.55
2022-11-13T16:20:01.235Z,8.27
2022-11-13T16:22:47.448Z,8.32
2022-11-13T16:25:34.517Z,8.57
2022-11-13T16:28:20.739Z,9.20
2022-11-13T16:31:07.313Z,11.93
2022-11-13T16:33:53.848Z,13.77
2022-11-13T16:36:40.543Z,10.23
2022-11-13T16:39:26.366Z,9.38
2022-11-13T16:42:14.467Z,10.23
2022-11-13T16:45:00.686Z,10.63
2022-11-13T16:47:47.595Z,11.77
2022-11-13T16:50:34.499Z,9.45
2022-11-13T16:53:20.923Z,13.43
2022-11-13T16:58:49.699Z,10.27
2022-11-13T17:01:36.286Z,13.77
2022-11-13T17:04:22.856Z,11.13
2022-11-13T17:07:14.083Z,14.63
2022-11-13T17:10:28.950Z,11.75
2022-11-13T17:13:06.579Z,10.98
2022-11-13T17:15:54.789Z,11.65
2022-11-13T17:18:40.968Z,10.48
2022-11-13T17:21:29.327Z,13.00
2022-11-13T17:24:15.678Z,10.70
2022-11-13T17:27:01.992Z,11.90
2022-11-13T17:29:48.320Z,11.73
2022-11-13T17:32:35.438Z,12.35
2022-11-13T17:35:21.564Z,14.25
2022-11-13T17:38:08.003Z,18.38
2022-11-13T17:40:54.759Z,17.95
2022-11-13T17:43:42.240Z,14.68
2022-11-13T17:46:29.092Z,13.27
2022-11-13T17:49:16.545Z,14.07
2022-11-13T17:52:03.209Z,14.88
2022-11-13T17:54:53.895Z,13.00
2022-11-13T17:57:40.394Z,14.38
2022-11-13T18:00:26.690Z,15.50
2022-11-13T18:03:13.085Z,15.80
2022-11-13T18:06:04.274Z,13.18
2022-11-13T18:08:51.792Z,14.85
2022-11-13T18:11:38.654Z,14.02
2022-11-13T18:14:24.964Z,16.02
2022-11-13T18:17:11.489Z,15.38
2022-11-13T18:20:01.753Z,15.02
2022-11-13T18:22:48.664Z,15.13
2022-11-13T18:25:39.613Z,17.77
2022-11-13T18:28:26.299Z,16.77
2022-11-13T18:31:16.953Z,16.75
2022-11-13T18:36:51.230Z,16.38
2022-11-13T18:39:37.719Z,16.65
2022-11-13T18:42:24.107Z,15.68
2022-11-13T18:45:11.928Z,15.43
2022-11-13T18:47:58.221Z,16.45
2022-11-13T18:50:55.410Z,13.30
2022-11-13T18:53:44.367Z,15.90
2022-11-13T18:56:32.339Z,17.20
2022-11-13T18:59:18.870Z,13.80
2022-11-13T19:02:05.149Z,19.20
2022-11-13T19:04:53.204Z,15.10
2022-11-13T19:07:39.853Z,15.05
2022-11-13T19:10:26.264Z,14.70
2022-11-13T19:13:12.412Z,13.40
2022-11-13T19:16:07.272Z,15.02
2022-11-13T19:19:01.009Z,13.73
2022-11-13T19:21:48.937Z,12.57
2022-11-13T19:24:35.794Z,15.40
2022-11-13T19:27:22.204Z,14.35
2022-11-13T19:30:10.780Z,12.05
2022-11-13T19:32:57.290Z,14.57
2022-11-13T19:35:44.369Z,15.55
2022-11-13T19:38:31.016Z,26.17
2022-11-13T19:41:18.076Z,28.83
2022-11-13T19:44:04.136Z,12.48
2022-11-13T19:46:51.538Z,15.77
2022-11-13T19:49:39.821Z,15.25
2022-11-13T19:52:26.612Z,14.88
2022-11-13T19:55:12.980Z,21.75
2022-11-13T19:57:59.180Z,16.92
2022-11-13T20:00:46.103Z,15.05
2022-11-13T20:03:32.632Z,10.73
2022-11-13T20:06:19.393Z,10.60
2022-11-13T20:09:06.537Z,11.75
2022-11-13T20:12:00.220Z,12.43
2022-11-13T20:14:46.692Z,11.90
2022-11-13T20:17:33.256Z,10.85
2022-11-13T20:20:20.230Z,11.02
2022-11-13T20:23:06.571Z,10.90
2022-11-13T20:25:59.502Z,13.80
2022-11-13T20:28:45.571Z,12.65
2022-11-13T20:31:31.986Z,11.48
2022-11-13T20:34:18.632Z,12.02
2022-11-13T20:37:04.995Z,10.95
2022-11-13T20:39:52.034Z,9.85
2022-11-13T20:42:38.851Z,12.05
2022-11-13T20:45:25.234Z,17.80
2022-11-13T20:48:11.835Z,8.48
2022-11-13T20:50:58.298Z,9.70
2022-11-13T20:53:45.024Z,10.10
2022-11-13T20:56:32.492Z,10.38
2022-11-13T20:59:18.813Z,11.43
2022-11-13T21:02:04.760Z,13.10
2022-11-13T21:04:51.118Z,10.52
2022-11-13T21:07:38.148Z,17.58
2022-11-13T21:10:24.407Z,14.80
2022-11-13T21:13:12.642Z,9.57
2022-11-13T21:15:58.798Z,10.82
2022-11-13T21:18:45.495Z,11.18
2022-11-13T21:21:32.067Z,10.52
2022-11-13T21:24:18.103Z,10.45
2022-11-13T21:27:04.717Z,10.00
2022-11-13T21:29:54.060Z,10.20
2022-11-13T21:32:40.551Z,9.38
2022-11-13T21:35:28.164Z,10.88
2022-11-13T21:38:14.368Z,12.63
2022-11-13T21:41:21.541Z,10.15
2022-11-13T21:44:10.739Z,10.52
2022-11-13T21:46:56.885Z,12.10
2022-11-13T21:49:44.719Z,16.98
2022-11-13T21:52:31.442Z,13.25
2022-11-13T21:55:17.568Z,13.27
2022-11-13T21:58:03.663Z,11.10
2022-11-13T22:00:50.379Z,9.80
2022-11-13T22:03:37.072Z,11.73
2022-11-13T22:06:26.191Z,25.55
2022-11-13T22:09:22.024Z,13.70
2022-11-13T22:12:09.992Z,15.55
2022-11-13T22:14:56.826Z,9.80
2022-11-13T22:17:43.145Z,11.98
2022-11-13T22:20:29.878Z,11.85
2022-11-13T22:23:16.933Z,11.13
2022-11-13T22:26:11.860Z,8.27
2022-11-13T22:29:00.126Z,8.70
2022-11-13T22:31:48.391Z,12.05
2022-11-13T22:34:34.904Z,14.18
2022-11-13T22:37:21.351Z,8.75
2022-11-13T22:40:08.640Z,9.93
2022-11-13T22:42:55.526Z,11.80
2022-11-13T22:45:42.066Z,9.40
2022-11-13T22:48:28.629Z,11.13
2022-11-13T22:51:17.941Z,11.80
2022-11-13T22:54:07.311Z,10.95
2022-11-13T22:56:53.736Z,10.25
2022-11-13T22:59:39.979Z,26.27
2022-11-13T23:02:28.701Z,33.65
2022-11-13T23:05:14.977Z,10.10
2022-11-13T23:08:00.898Z,10.38
2022-11-13T23:10:54.014Z,10.57
2022-11-13T23:13:43.861Z,9.05
2022-11-13T23:16:33.335Z,11.60
2022-11-13T23:19:19.456Z,12.50
2022-11-13T23:22:05.267Z,11.70
2022-11-13T23:24:52.007Z,15.93
2022-11-13T23:27:38.720Z,16.95
2022-11-13T23:30:25.142Z,12.70
2022-11-13T23:33:11.284Z,10.07
2022-11-13T23:35:57.510Z,12.30
2022-11-13T23:38:44.564Z,9.55
2022-11-13T23:41:31.608Z,9.73
2022-11-13T23:44:18.498Z,10.32
2022-11-13T23:47:04.975Z,13.43
2022-11-13T23:49:51.448Z,8.95
2022-11-13T23:52:38.239Z,9.80
2022-11-13T23:55:25.348Z,8.70
2022-11-13T23:58:15.983Z,9.30
